sensor_id;sensor_type;location;lat;lon;timestamp;P1;durP1;ratioP1;P2;durP2;ratioP2
13311;SDS011;34033;48.672;9.376;2022-12-07T00:01:11;2.20;;;2.00;;
13311;SDS011;34033;48.672;9.376;2022-12-07T00:03:37;2.50;;;2.30;;
13311;SDS011;34033;48.672;9.376;2022-12-07T00:06:04;2.30;;;2.10;;
13311;SDS011;34033;48.672;9.376;2022-12-07T00:08:31;2.60;;;2.40;;
13311;SDS011;34033;48.672;9.376;2022-12-07T00:11:00;2.70;;;2.27;;
13311;SDS011;34033;48.672;9.376;2022-12-07T00:13:36;3.10;;;2.43;;
13311;SDS011;34033;48.672;9.376;2022-12-07T00:16:03;2.63;;;2.43;;
13311;SDS011;34033;48.672;9.376;2022-12-07T00:18:30;1.97;;;1.87;;
13311;SDS011;34033;48.672;9.376;2022-12-07T00:21:02;2.10;;;2.00;;
13311;SDS011;34033;48.672;9.376;2022-12-07T00:23:34;2.30;;;2.10;;
13311;SDS011;34033;48.672;9.376;2022-12-07T00:26:03;2.67;;;2.20;;
13311;SDS011;34033;48.672;9.376;2022-12-07T00:28:33;2.60;;;2.40;;
13311;SDS011;34033;48.672;9.376;2022-12-07T00:31:00;2.30;;;2.10;;
13311;SDS011;34033;48.672;9.376;2022-12-07T00:33:37;2.50;;;2.30;;
13311;SDS011;34033;48.672;9.376;2022-12-07T00:36:06;2.37;;;2.17;;
13311;SDS011;34033;48.672;9.376;2022-12-07T00:38:34;2.50;;;2.30;;
13311;SDS011;34033;48.672;9.376;2022-12-07T00:41:01;2.97;;;2.23;;
13311;SDS011;34033;48.672;9.376;2022-12-07T00:43:31;2.03;;;1.93;;
13311;SDS011;34033;48.672;9.376;2022-12-07T00:45:57;2.00;;;1.90;;
13311;SDS011;34033;48.672;9.376;2022-12-07T00:48:23;2.57;;;2.37;;
13311;SDS011;34033;48.672;9.376;2022-12-07T00:50:48;2.20;;;2.00;;
13311;SDS011;34033;48.672;9.376;2022-12-07T00:53:14;2.10;;;2.00;;
13311;SDS011;34033;48.672;9.376;2022-12-07T00:55:40;2.27;;;2.07;;
13311;SDS011;34033;48.672;9.376;2022-12-07T00:58:06;2.17;;;2.00;;
13311;SDS011;34033;48.672;9.376;2022-12-07T01:00:31;2.17;;;1.97;;
13311;SDS011;34033;48.672;9.376;2022-12-07T01:02:57;2.50;;;2.00;;
13311;SDS011;34033;48.672;9.376;2022-12-07T01:05:23;2.40;;;2.20;;
13311;SDS011;34033;48.672;9.376;2022-12-07T01:07:48;2.30;;;2.10;;
13311;SDS011;34033;48.672;9.376;2022-12-07T01:10:14;3.00;;;2.13;;
13311;SDS011;34033;48.672;9.376;2022-12-07T01:12:39;2.37;;;2.17;;
13311;SDS011;34033;48.672;9.376;2022-12-07T01:15:06;2.80;;;2.60;;
13311;SDS011;34033;48.672;9.376;2022-12-07T01:17:31;2.53;;;2.33;;
13311;SDS011;34033;48.672;9.376;2022-12-07T01:19:57;2.50;;;2.30;;
13311;SDS011;34033;48.672;9.376;2022-12-07T01:22:22;2.63;;;2.43;;
13311;SDS011;34033;48.672;9.376;2022-12-07T01:24:48;2.67;;;2.43;;
13311;SDS011;34033;48.672;9.376;2022-12-07T01:27:13;3.30;;;2.30;;
13311;SDS011;34033;48.672;9.376;2022-12-07T01:29:39;2.70;;;2.50;;
13311;SDS011;34033;48.672;9.376;2022-12-07T01:32:04;3.17;;;2.80;;
13311;SDS011;34033;48.672;9.376;2022-12-07T01:34:29;4.10;;;2.87;;
13311;SDS011;34033;48.672;9.376;2022-12-07T01:36:55;3.53;;;2.60;;
13311;SDS011;34033;48.672;9.376;2022-12-07T01:39:20;2.57;;;2.37;;
13311;SDS011;34033;48.672;9.376;2022-12-07T01:41:46;2.67;;;2.37;;
13311;SDS011;34033;48.672;9.376;2022-12-07T01:47:02;2.47;;;2.27;;
13311;SDS011;34033;48.672;9.376;2022-12-07T01:49:41;2.97;;;2.67;;
13311;SDS011;34033;48.672;9.376;2022-12-07T01:52:30;2.63;;;2.43;;
13311;SDS011;34033;48.672;9.376;2022-12-07T01:55:02;2.80;;;2.57;;
13311;SDS011;34033;48.672;9.376;2022-12-07T01:57:30;3.13;;;2.70;;
13311;SDS011;34033;48.672;9.376;2022-12-07T01:59:57;2.83;;;2.53;;
13311;SDS011;34033;48.672;9.376;2022-12-07T02:02:26;2.90;;;2.70;;
13311;SDS011;34033;48.672;9.376;2022-12-07T02:04:55;4.13;;;3.20;;
13311;SDS011;34033;48.672;9.376;2022-12-07T02:07:22;4.47;;;3.23;;
13311;SDS011;34033;48.672;9.376;2022-12-07T02:09:48;3.47;;;3.17;;
13311;SDS011;34033;48.672;9.376;2022-12-07T02:12:14;3.53;;;3.17;;
13311;SDS011;34033;48.672;9.376;2022-12-07T02:14:40;2.97;;;2.67;;
13311;SDS011;34033;48.672;9.376;2022-12-07T02:17:19;3.70;;;3.27;;
13311;SDS011;34033;48.672;9.376;2022-12-07T02:30:40;5.80;;;3.33;;
13311;SDS011;34033;48.672;9.376;2022-12-07T02:36:26;4.10;;;3.57;;
13311;SDS011;34033;48.672;9.376;2022-12-07T02:38:54;3.90;;;3.50;;
13311;SDS011;34033;48.672;9.376;2022-12-07T02:43:53;7.53;;;3.80;;
13311;SDS011;34033;48.672;9.376;2022-12-07T02:46:22;4.33;;;3.20;;
13311;SDS011;34033;48.672;9.376;2022-12-07T02:48:51;4.60;;;3.67;;
13311;SDS011;34033;48.672;9.376;2022-12-07T02:51:20;4.10;;;3.33;;
13311;SDS011;34033;48.672;9.376;2022-12-07T02:53:47;6.00;;;3.40;;
13311;SDS011;34033;48.672;9.376;2022-12-07T03:04:42;3.43;;;3.13;;
13311;SDS011;34033;48.672;9.376;2022-12-07T03:13:00;4.00;;;3.60;;
13311;SDS011;34033;48.672;9.376;2022-12-07T03:18:28;4.07;;;3.43;;
13311;SDS011;34033;48.672;9.376;2022-12-07T03:20:57;3.30;;;3.00;;
13311;SDS011;34033;48.672;9.376;2022-12-07T03:23:27;3.73;;;3.33;;
13311;SDS011;34033;48.672;9.376;2022-12-07T03:25:55;3.77;;;3.10;;
13311;SDS011;34033;48.672;9.376;2022-12-07T03:28:24;5.70;;;3.53;;
13311;SDS011;34033;48.672;9.376;2022-12-07T03:31:03;4.13;;;3.10;;
13311;SDS011;34033;48.672;9.376;2022-12-07T03:33:41;4.30;;;3.40;;
13311;SDS011;34033;48.672;9.376;2022-12-07T03:36:30;4.03;;;3.23;;
13311;SDS011;34033;48.672;9.376;2022-12-07T03:39:08;5.23;;;3.67;;
13311;SDS011;34033;48.672;9.376;2022-12-07T03:41:42;4.20;;;3.30;;
13311;SDS011;34033;48.672;9.376;2022-12-07T03:44:08;3.47;;;3.07;;
13311;SDS011;34033;48.672;9.376;2022-12-07T03:54:24;4.40;;;3.57;;
13311;SDS011;34033;48.672;9.376;2022-12-07T03:56:55;3.80;;;3.10;;
13311;SDS011;34033;48.672;9.376;2022-12-07T03:59:23;4.57;;;3.60;;
13311;SDS011;34033;48.672;9.376;2022-12-07T04:01:53;4.97;;;3.93;;
13311;SDS011;34033;48.672;9.376;2022-12-07T04:04:21;4.87;;;3.60;;
13311;SDS011;34033;48.672;9.376;2022-12-07T04:06:48;3.60;;;3.20;;
13311;SDS011;34033;48.672;9.376;2022-12-07T04:09:13;4.30;;;3.30;;
13311;SDS011;34033;48.672;9.376;2022-12-07T04:11:39;3.97;;;3.23;;
13311;SDS011;34033;48.672;9.376;2022-12-07T04:14:04;5.00;;;4.00;;
13311;SDS011;34033;48.672;9.376;2022-12-07T04:19:15;2.53;;;2.33;;
13311;SDS011;34033;48.672;9.376;2022-12-07T04:21:41;5.17;;;3.80;;
13311;SDS011;34033;48.672;9.376;2022-12-07T04:24:06;5.63;;;4.10;;
13311;SDS011;34033;48.672;9.376;2022-12-07T04:26:32;4.97;;;3.80;;
13311;SDS011;34033;48.672;9.376;2022-12-07T04:28:57;5.47;;;4.17;;
13311;SDS011;34033;48.672;9.376;2022-12-07T04:31:22;6.00;;;4.00;;
13311;SDS011;34033;48.672;9.376;2022-12-07T04:33:48;5.87;;;4.07;;
13311;SDS011;34033;48.672;9.376;2022-12-07T04:36:13;5.50;;;4.33;;
13311;SDS011;34033;48.672;9.376;2022-12-07T04:38:38;5.17;;;4.27;;
13311;SDS011;34033;48.672;9.376;2022-12-07T04:41:07;5.97;;;4.03;;
13311;SDS011;34033;48.672;9.376;2022-12-07T04:43:33;8.47;;;4.80;;
13311;SDS011;34033;48.672;9.376;2022-12-07T04:45:59;7.13;;;4.50;;
13311;SDS011;34033;48.672;9.376;2022-12-07T04:48:24;6.77;;;3.93;;
13311;SDS011;34033;48.672;9.376;2022-12-07T04:50:49;5.00;;;4.30;;
13311;SDS011;34033;48.672;9.376;2022-12-07T04:53:15;4.43;;;3.73;;
13311;SDS011;34033;48.672;9.376;2022-12-07T04:55:40;4.37;;;3.73;;
13311;SDS011;34033;48.672;9.376;2022-12-07T04:58:06;6.27;;;4.00;;
13311;SDS011;34033;48.672;9.376;2022-12-07T05:00:31;10.07;;;3.80;;
13311;SDS011;34033;48.672;9.376;2022-12-07T05:02:57;4.60;;;3.53;;
13311;SDS011;34033;48.672;9.376;2022-12-07T05:05:22;4.53;;;3.67;;
13311;SDS011;34033;48.672;9.376;2022-12-07T05:07:49;3.53;;;3.23;;
13311;SDS011;34033;48.672;9.376;2022-12-07T05:10:14;3.93;;;3.53;;
13311;SDS011;34033;48.672;9.376;2022-12-07T05:12:40;3.70;;;3.40;;
13311;SDS011;34033;48.672;9.376;2022-12-07T05:15:05;3.90;;;3.43;;
13311;SDS011;34033;48.672;9.376;2022-12-07T05:17:31;1.90;;;1.80;;
13311;SDS011;34033;48.672;9.376;2022-12-07T05:19:56;3.97;;;3.13;;
13311;SDS011;34033;48.672;9.376;2022-12-07T05:22:21;4.17;;;3.60;;
13311;SDS011;34033;48.672;9.376;2022-12-07T05:24:47;4.83;;;3.60;;
13311;SDS011;34033;48.672;9.376;2022-12-07T05:27:12;5.67;;;3.90;;
13311;SDS011;34033;48.672;9.376;2022-12-07T05:29:37;5.80;;;3.90;;
13311;SDS011;34033;48.672;9.376;2022-12-07T05:32:03;4.40;;;3.77;;
13311;SDS011;34033;48.672;9.376;2022-12-07T05:34:28;4.27;;;3.87;;
13311;SDS011;34033;48.672;9.376;2022-12-07T05:36:53;4.27;;;3.70;;
13311;SDS011;34033;48.672;9.376;2022-12-07T05:39:19;4.73;;;3.80;;
13311;SDS011;34033;48.672;9.376;2022-12-07T05:41:44;6.00;;;3.93;;
13311;SDS011;34033;48.672;9.376;2022-12-07T05:44:28;5.23;;;3.70;;
13311;SDS011;34033;48.672;9.376;2022-12-07T05:46:53;3.50;;;3.20;;
13311;SDS011;34033;48.672;9.376;2022-12-07T05:49:18;3.63;;;3.20;;
13311;SDS011;34033;48.672;9.376;2022-12-07T05:51:43;3.93;;;3.43;;
13311;SDS011;34033;48.672;9.376;2022-12-07T05:54:09;4.87;;;3.77;;
13311;SDS011;34033;48.672;9.376;2022-12-07T05:56:34;3.40;;;3.10;;
13311;SDS011;34033;48.672;9.376;2022-12-07T05:59:00;7.13;;;4.03;;
13311;SDS011;34033;48.672;9.376;2022-12-07T06:01:43;4.70;;;3.90;;
13311;SDS011;34033;48.672;9.376;2022-12-07T06:04:09;6.90;;;3.60;;
13311;SDS011;34033;48.672;9.376;2022-12-07T06:06:34;4.47;;;3.60;;
13311;SDS011;34033;48.672;9.376;2022-12-07T06:09:00;5.60;;;4.33;;
13311;SDS011;34033;48.672;9.376;2022-12-07T06:11:25;5.27;;;4.07;;
13311;SDS011;34033;48.672;9.376;2022-12-07T06:14:09;3.57;;;3.23;;
13311;SDS011;34033;48.672;9.376;2022-12-07T06:16:34;4.93;;;3.63;;
13311;SDS011;34033;48.672;9.376;2022-12-07T06:18:59;7.17;;;3.83;;
13311;SDS011;34033;48.672;9.376;2022-12-07T06:21:25;4.10;;;3.57;;
13311;SDS011;34033;48.672;9.376;2022-12-07T06:23:53;4.40;;;3.83;;
13311;SDS011;34033;48.672;9.376;2022-12-07T06:26:18;4.13;;;3.50;;
13311;SDS011;34033;48.672;9.376;2022-12-07T06:28:44;5.53;;;4.37;;
13311;SDS011;34033;48.672;9.376;2022-12-07T06:31:09;4.57;;;3.70;;
13311;SDS011;34033;48.672;9.376;2022-12-07T06:33:34;3.37;;;2.93;;
13311;SDS011;34033;48.672;9.376;2022-12-07T06:36:00;5.97;;;3.80;;
13311;SDS011;34033;48.672;9.376;2022-12-07T06:38:25;6.73;;;4.07;;
13311;SDS011;34033;48.672;9.376;2022-12-07T06:40:50;4.93;;;4.00;;
13311;SDS011;34033;48.672;9.376;2022-12-07T06:43:16;3.97;;;3.57;;
13311;SDS011;34033;48.672;9.376;2022-12-07T06:45:41;4.80;;;4.03;;
13311;SDS011;34033;48.672;9.376;2022-12-07T06:48:07;5.80;;;4.17;;
13311;SDS011;34033;48.672;9.376;2022-12-07T06:50:32;6.03;;;3.90;;
13311;SDS011;34033;48.672;9.376;2022-12-07T06:52:58;4.10;;;3.70;;
13311;SDS011;34033;48.672;9.376;2022-12-07T06:55:23;3.63;;;3.33;;
13311;SDS011;34033;48.672;9.376;2022-12-07T06:57:49;4.43;;;3.63;;
13311;SDS011;34033;48.672;9.376;2022-12-07T07:00:14;4.33;;;3.70;;
13311;SDS011;34033;48.672;9.376;2022-12-07T07:02:40;4.07;;;3.53;;
13311;SDS011;34033;48.672;9.376;2022-12-07T07:05:05;4.50;;;3.83;;
13311;SDS011;34033;48.672;9.376;2022-12-07T07:07:31;4.17;;;3.60;;
13311;SDS011;34033;48.672;9.376;2022-12-07T07:09:56;3.60;;;3.30;;
13311;SDS011;34033;48.672;9.376;2022-12-07T07:12:21;3.57;;;3.23;;
13311;SDS011;34033;48.672;9.376;2022-12-07T07:14:47;4.90;;;3.60;;
13311;SDS011;34033;48.672;9.376;2022-12-07T07:17:12;3.53;;;3.23;;
13311;SDS011;34033;48.672;9.376;2022-12-07T07:19:38;4.27;;;3.23;;
13311;SDS011;34033;48.672;9.376;2022-12-07T07:22:03;3.00;;;2.70;;
13311;SDS011;34033;48.672;9.376;2022-12-07T07:24:29;3.83;;;3.00;;
13311;SDS011;34033;48.672;9.376;2022-12-07T07:26:54;4.73;;;3.60;;
13311;SDS011;34033;48.672;9.376;2022-12-07T07:29:20;3.53;;;3.20;;
13311;SDS011;34033;48.672;9.376;2022-12-07T07:31:45;4.70;;;3.27;;
13311;SDS011;34033;48.672;9.376;2022-12-07T07:34:10;3.00;;;2.70;;
13311;SDS011;34033;48.672;9.376;2022-12-07T07:36:36;3.53;;;2.63;;
13311;SDS011;34033;48.672;9.376;2022-12-07T07:39:01;3.03;;;2.63;;
13311;SDS011;34033;48.672;9.376;2022-12-07T07:41:26;3.43;;;3.13;;
13311;SDS011;34033;48.672;9.376;2022-12-07T07:43:51;3.77;;;3.20;;
13311;SDS011;34033;48.672;9.376;2022-12-07T07:46:17;3.83;;;3.40;;
13311;SDS011;34033;48.672;9.376;2022-12-07T07:48:42;3.37;;;3.00;;
13311;SDS011;34033;48.672;9.376;2022-12-07T07:51:08;4.40;;;3.40;;
13311;SDS011;34033;48.672;9.376;2022-12-07T07:53:33;4.47;;;3.20;;
13311;SDS011;34033;48.672;9.376;2022-12-07T07:55:59;3.17;;;2.50;;
13311;SDS011;34033;48.672;9.376;2022-12-07T07:58:24;3.33;;;2.90;;
13311;SDS011;34033;48.672;9.376;2022-12-07T08:00:50;3.80;;;3.23;;
13311;SDS011;34033;48.672;9.376;2022-12-07T08:03:15;4.03;;;3.30;;
13311;SDS011;34033;48.672;9.376;2022-12-07T08:05:41;4.07;;;3.57;;
13311;SDS011;34033;48.672;9.376;2022-12-07T08:08:06;4.63;;;3.30;;
13311;SDS011;34033;48.672;9.376;2022-12-07T08:10:31;5.07;;;3.20;;
13311;SDS011;34033;48.672;9.376;2022-12-07T08:12:57;2.33;;;2.13;;
13311;SDS011;34033;48.672;9.376;2022-12-07T08:15:42;8.50;;;3.40;;
13311;SDS011;34033;48.672;9.376;2022-12-07T08:18:10;3.87;;;3.40;;
13311;SDS011;34033;48.672;9.376;2022-12-07T08:20:37;5.00;;;3.90;;
13311;SDS011;34033;48.672;9.376;2022-12-07T08:23:03;5.30;;;3.90;;
13311;SDS011;34033;48.672;9.376;2022-12-07T08:25:29;5.80;;;3.47;;
13311;SDS011;34033;48.672;9.376;2022-12-07T08:27:55;3.17;;;2.87;;
13311;SDS011;34033;48.672;9.376;2022-12-07T08:30:20;3.40;;;3.10;;
13311;SDS011;34033;48.672;9.376;2022-12-07T08:32:46;3.83;;;3.40;;
13311;SDS011;34033;48.672;9.376;2022-12-07T08:35:13;4.83;;;3.37;;
13311;SDS011;34033;48.672;9.376;2022-12-07T08:37:39;3.60;;;3.30;;
13311;SDS011;34033;48.672;9.376;2022-12-07T08:40:06;3.17;;;2.93;;
13311;SDS011;34033;48.672;9.376;2022-12-07T08:42:33;3.73;;;3.40;;
13311;SDS011;34033;48.672;9.376;2022-12-07T08:45:12;6.90;;;4.67;;
13311;SDS011;34033;48.672;9.376;2022-12-07T08:47:43;4.90;;;3.53;;
13311;SDS011;34033;48.672;9.376;2022-12-07T08:50:13;5.17;;;3.30;;
13311;SDS011;34033;48.672;9.376;2022-12-07T08:52:39;3.67;;;3.00;;
13311;SDS011;34033;48.672;9.376;2022-12-07T08:55:06;3.73;;;3.10;;
13311;SDS011;34033;48.672;9.376;2022-12-07T08:57:32;5.90;;;3.20;;
13311;SDS011;34033;48.672;9.376;2022-12-07T09:00:00;3.87;;;3.30;;
13311;SDS011;34033;48.672;9.376;2022-12-07T09:02:25;8.17;;;3.90;;
13311;SDS011;34033;48.672;9.376;2022-12-07T09:04:50;3.60;;;3.30;;
13311;SDS011;34033;48.672;9.376;2022-12-07T09:07:16;4.30;;;3.40;;
13311;SDS011;34033;48.672;9.376;2022-12-07T09:09:41;4.03;;;3.17;;
13311;SDS011;34033;48.672;9.376;2022-12-07T09:12:07;3.70;;;3.30;;
13311;SDS011;34033;48.672;9.376;2022-12-07T09:14:32;3.30;;;3.00;;
13311;SDS011;34033;48.672;9.376;2022-12-07T09:17:11;3.30;;;3.00;;
13311;SDS011;34033;48.672;9.376;2022-12-07T09:19:37;5.37;;;3.33;;
13311;SDS011;34033;48.672;9.376;2022-12-07T09:22:03;3.50;;;3.13;;
13311;SDS011;34033;48.672;9.376;2022-12-07T09:24:30;3.30;;;3.00;;
13311;SDS011;34033;48.672;9.376;2022-12-07T09:26:56;3.40;;;2.90;;
13311;SDS011;34033;48.672;9.376;2022-12-07T09:29:22;3.50;;;3.20;;
13311;SDS011;34033;48.672;9.376;2022-12-07T09:31:47;3.23;;;2.83;;
13311;SDS011;34033;48.672;9.376;2022-12-07T09:34:12;3.20;;;2.90;;
13311;SDS011;34033;48.672;9.376;2022-12-07T09:36:38;2.90;;;2.70;;
13311;SDS011;34033;48.672;9.376;2022-12-07T09:39:03;3.63;;;3.23;;
13311;SDS011;34033;48.672;9.376;2022-12-07T09:41:30;3.20;;;2.90;;
13311;SDS011;34033;48.672;9.376;2022-12-07T09:44:12;4.20;;;3.20;;
13311;SDS011;34033;48.672;9.376;2022-12-07T09:46:42;2.87;;;2.63;;
13311;SDS011;34033;48.672;9.376;2022-12-07T09:49:11;4.03;;;3.30;;
13311;SDS011;34033;48.672;9.376;2022-12-07T09:51:41;4.77;;;3.20;;
13311;SDS011;34033;48.672;9.376;2022-12-07T09:54:07;3.47;;;3.00;;
13311;SDS011;34033;48.672;9.376;2022-12-07T09:56:37;3.53;;;3.20;;
13311;SDS011;34033;48.672;9.376;2022-12-07T09:59:02;3.97;;;3.33;;
13311;SDS011;34033;48.672;9.376;2022-12-07T10:01:29;3.80;;;3.37;;
13311;SDS011;34033;48.672;9.376;2022-12-07T10:06:35;4.30;;;3.40;;
13311;SDS011;34033;48.672;9.376;2022-12-07T10:09:00;3.40;;;2.90;;
13311;SDS011;34033;48.672;9.376;2022-12-07T10:11:26;3.50;;;3.20;;
13311;SDS011;34033;48.672;9.376;2022-12-07T10:13:51;6.43;;;2.93;;
13311;SDS011;34033;48.672;9.376;2022-12-07T10:18:50;3.03;;;2.73;;
13311;SDS011;34033;48.672;9.376;2022-12-07T10:21:17;3.40;;;2.77;;
13311;SDS011;34033;48.672;9.376;2022-12-07T10:28:59;2.97;;;2.70;;
13311;SDS011;34033;48.672;9.376;2022-12-07T10:31:27;3.13;;;2.83;;
13311;SDS011;34033;48.672;9.376;2022-12-07T10:33:57;4.00;;;2.90;;
13311;SDS011;34033;48.672;9.376;2022-12-07T10:36:25;3.83;;;2.97;;
13311;SDS011;34033;48.672;9.376;2022-12-07T10:39:02;3.00;;;2.60;;
13311;SDS011;34033;48.672;9.376;2022-12-07T10:41:28;3.20;;;2.53;;
13311;SDS011;34033;48.672;9.376;2022-12-07T10:43:54;2.80;;;2.60;;
13311;SDS011;34033;48.672;9.376;2022-12-07T10:51:46;2.97;;;2.17;;
13311;SDS011;34033;48.672;9.376;2022-12-07T11:08:13;1.60;;;1.50;;
13311;SDS011;34033;48.672;9.376;2022-12-07T11:13:48;2.90;;;2.63;;
13311;SDS011;34033;48.672;9.376;2022-12-07T11:16:27;2.77;;;2.57;;
13311;SDS011;34033;48.672;9.376;2022-12-07T11:27:47;3.47;;;3.00;;
13311;SDS011;34033;48.672;9.376;2022-12-07T11:30:31;5.03;;;3.20;;
13311;SDS011;34033;48.672;9.376;2022-12-07T11:33:09;5.10;;;3.53;;
13311;SDS011;34033;48.672;9.376;2022-12-07T11:36:00;3.20;;;2.90;;
13311;SDS011;34033;48.672;9.376;2022-12-07T11:38:39;3.03;;;2.70;;
13311;SDS011;34033;48.672;9.376;2022-12-07T11:41:11;3.87;;;2.70;;
13311;SDS011;34033;48.672;9.376;2022-12-07T11:43:37;2.77;;;2.50;;
13311;SDS011;34033;48.672;9.376;2022-12-07T11:46:31;2.60;;;2.40;;
13311;SDS011;34033;48.672;9.376;2022-12-07T11:51:51;2.67;;;2.43;;
13311;SDS011;34033;48.672;9.376;2022-12-07T11:54:27;3.23;;;2.93;;
13311;SDS011;34033;48.672;9.376;2022-12-07T11:57:02;3.53;;;2.37;;
13311;SDS011;34033;48.672;9.376;2022-12-07T11:59:36;6.63;;;2.57;;
13311;SDS011;34033;48.672;9.376;2022-12-07T12:07:10;3.07;;;2.77;;
13311;SDS011;34033;48.672;9.376;2022-12-07T12:09:45;6.50;;;3.00;;
13311;SDS011;34033;48.672;9.376;2022-12-07T12:20:32;3.77;;;2.60;;
13311;SDS011;34033;48.672;9.376;2022-12-07T12:23:21;3.30;;;2.70;;
13311;SDS011;34033;48.672;9.376;2022-12-07T12:25:59;3.93;;;2.70;;
13311;SDS011;34033;48.672;9.376;2022-12-07T12:28:39;2.53;;;2.33;;
13311;SDS011;34033;48.672;9.376;2022-12-07T12:31:17;2.40;;;2.20;;
13311;SDS011;34033;48.672;9.376;2022-12-07T12:33:53;3.30;;;2.67;;
13311;SDS011;34033;48.672;9.376;2022-12-07T12:36:43;2.90;;;2.30;;
13311;SDS011;34033;48.672;9.376;2022-12-07T12:39:12;4.37;;;2.83;;
13311;SDS011;34033;48.672;9.376;2022-12-07T12:46:45;3.57;;;2.37;;
13311;SDS011;34033;48.672;9.376;2022-12-07T12:54:41;5.27;;;2.57;;
13311;SDS011;34033;48.672;9.376;2022-12-07T12:57:26;2.40;;;2.20;;
13311;SDS011;34033;48.672;9.376;2022-12-07T13:02:37;2.67;;;2.43;;
13311;SDS011;34033;48.672;9.376;2022-12-07T13:15:45;2.67;;;2.33;;
13311;SDS011;34033;48.672;9.376;2022-12-07T13:18:25;4.10;;;2.53;;
13311;SDS011;34033;48.672;9.376;2022-12-07T13:23:51;3.23;;;2.30;;
13311;SDS011;34033;48.672;9.376;2022-12-07T13:28:52;4.00;;;3.10;;
13311;SDS011;34033;48.672;9.376;2022-12-07T13:36:55;2.20;;;2.00;;
13311;SDS011;34033;48.672;9.376;2022-12-07T13:39:21;2.70;;;2.10;;
13311;SDS011;34033;48.672;9.376;2022-12-07T13:41:50;3.67;;;2.23;;
13311;SDS011;34033;48.672;9.376;2022-12-07T13:44:17;2.50;;;2.27;;
13311;SDS011;34033;48.672;9.376;2022-12-07T13:46:51;4.20;;;2.30;;
13311;SDS011;34033;48.672;9.376;2022-12-07T13:49:24;2.90;;;2.60;;
13311;SDS011;34033;48.672;9.376;2022-12-07T13:51:56;2.87;;;2.30;;
13311;SDS011;34033;48.672;9.376;2022-12-07T13:54:56;4.70;;;2.17;;
13311;SDS011;34033;48.672;9.376;2022-12-07T13:57:30;2.63;;;2.43;;
13311;SDS011;34033;48.672;9.376;2022-12-07T13:59:59;3.27;;;2.33;;
13311;SDS011;34033;48.672;9.376;2022-12-07T14:02:27;2.20;;;2.00;;
13311;SDS011;34033;48.672;9.376;2022-12-07T14:07:54;3.07;;;2.60;;
13311;SDS011;34033;48.672;9.376;2022-12-07T14:12:55;3.90;;;2.80;;
13311;SDS011;34033;48.672;9.376;2022-12-07T14:15:22;3.47;;;2.70;;
13311;SDS011;34033;48.672;9.376;2022-12-07T14:17:55;3.00;;;2.70;;
13311;SDS011;34033;48.672;9.376;2022-12-07T14:23:22;2.57;;;1.90;;
13311;SDS011;34033;48.672;9.376;2022-12-07T14:25:50;2.40;;;2.20;;
13311;SDS011;34033;48.672;9.376;2022-12-07T14:28:35;2.83;;;2.37;;
13311;SDS011;34033;48.672;9.376;2022-12-07T14:31:03;3.70;;;2.63;;
13311;SDS011;34033;48.672;9.376;2022-12-07T14:33:33;2.17;;;1.97;;
13311;SDS011;34033;48.672;9.376;2022-12-07T14:35:58;2.20;;;2.03;;
13311;SDS011;34033;48.672;9.376;2022-12-07T14:38:24;2.30;;;2.10;;
13311;SDS011;34033;48.672;9.376;2022-12-07T14:40:53;2.57;;;2.37;;
13311;SDS011;34033;48.672;9.376;2022-12-07T14:43:39;2.50;;;2.30;;
13311;SDS011;34033;48.672;9.376;2022-12-07T14:46:05;2.40;;;2.20;;
13311;SDS011;34033;48.672;9.376;2022-12-07T14:48:30;3.03;;;2.20;;
13311;SDS011;34033;48.672;9.376;2022-12-07T14:50:55;2.53;;;2.33;;
13311;SDS011;34033;48.672;9.376;2022-12-07T14:53:21;2.43;;;2.30;;
13311;SDS011;34033;48.672;9.376;2022-12-07T14:55:54;2.40;;;2.20;;
13311;SDS011;34033;48.672;9.376;2022-12-07T14:58:19;2.97;;;2.47;;
13311;SDS011;34033;48.672;9.376;2022-12-07T15:00:45;4.40;;;3.13;;
13311;SDS011;34033;48.672;9.376;2022-12-07T15:03:12;2.60;;;2.40;;
13311;SDS011;34033;48.672;9.376;2022-12-07T15:05:38;3.43;;;2.67;;
13311;SDS011;34033;48.672;9.376;2022-12-07T15:08:04;3.63;;;2.77;;
13311;SDS011;34033;48.672;9.376;2022-12-07T15:10:31;3.70;;;3.17;;
13311;SDS011;34033;48.672;9.376;2022-12-07T15:13:03;5.80;;;3.03;;
13311;SDS011;34033;48.672;9.376;2022-12-07T15:15:48;5.10;;;3.80;;
13311;SDS011;34033;48.672;9.376;2022-12-07T15:18:15;9.30;;;4.73;;
13311;SDS011;34033;48.672;9.376;2022-12-07T15:20:41;3.60;;;3.30;;
13311;SDS011;34033;48.672;9.376;2022-12-07T15:23:07;3.27;;;2.67;;
13311;SDS011;34033;48.672;9.376;2022-12-07T15:25:32;4.03;;;3.00;;
13311;SDS011;34033;48.672;9.376;2022-12-07T15:27:58;7.83;;;2.53;;
13311;SDS011;34033;48.672;9.376;2022-12-07T15:30:24;2.93;;;2.63;;
13311;SDS011;34033;48.672;9.376;2022-12-07T15:32:49;2.67;;;2.40;;
13311;SDS011;34033;48.672;9.376;2022-12-07T15:35:19;5.37;;;3.03;;
13311;SDS011;34033;48.672;9.376;2022-12-07T15:37:46;9.37;;;5.17;;
13311;SDS011;34033;48.672;9.376;2022-12-07T15:40:12;16.00;;;8.07;;
13311;SDS011;34033;48.672;9.376;2022-12-07T15:42:38;12.03;;;6.93;;
13311;SDS011;34033;48.672;9.376;2022-12-07T15:45:05;25.37;;;13.73;;
13311;SDS011;34033;48.672;9.376;2022-12-07T15:47:33;15.63;;;9.00;;
13311;SDS011;34033;48.672;9.376;2022-12-07T15:50:04;10.57;;;5.40;;
13311;SDS011;34033;48.672;9.376;2022-12-07T15:52:32;3.43;;;3.13;;
13311;SDS011;34033;48.672;9.376;2022-12-07T15:54:57;4.47;;;2.57;;
13311;SDS011;34033;48.672;9.376;2022-12-07T15:57:24;3.93;;;3.07;;
13311;SDS011;34033;48.672;9.376;2022-12-07T15:59:50;3.50;;;3.07;;
13311;SDS011;34033;48.672;9.376;2022-12-07T16:02:15;4.93;;;2.87;;
13311;SDS011;34033;48.672;9.376;2022-12-07T16:04:41;4.47;;;3.13;;
13311;SDS011;34033;48.672;9.376;2022-12-07T16:07:06;3.80;;;2.87;;
13311;SDS011;34033;48.672;9.376;2022-12-07T16:09:31;2.27;;;2.07;;
13311;SDS011;34033;48.672;9.376;2022-12-07T16:11:57;2.23;;;2.07;;
13311;SDS011;34033;48.672;9.376;2022-12-07T16:14:22;2.30;;;2.10;;
13311;SDS011;34033;48.672;9.376;2022-12-07T16:16:48;2.73;;;2.13;;
13311;SDS011;34033;48.672;9.376;2022-12-07T16:19:13;2.73;;;2.43;;
13311;SDS011;34033;48.672;9.376;2022-12-07T16:21:38;2.80;;;2.50;;
13311;SDS011;34033;48.672;9.376;2022-12-07T16:24:04;2.50;;;2.30;;
13311;SDS011;34033;48.672;9.376;2022-12-07T16:26:30;3.73;;;2.70;;
13311;SDS011;34033;48.672;9.376;2022-12-07T16:28:55;2.87;;;2.67;;
13311;SDS011;34033;48.672;9.376;2022-12-07T16:31:22;3.03;;;2.83;;
13311;SDS011;34033;48.672;9.376;2022-12-07T16:33:50;4.07;;;3.10;;
13311;SDS011;34033;48.672;9.376;2022-12-07T16:36:18;4.30;;;3.10;;
13311;SDS011;34033;48.672;9.376;2022-12-07T16:38:43;2.93;;;2.70;;
13311;SDS011;34033;48.672;9.376;2022-12-07T16:41:09;6.63;;;3.10;;
13311;SDS011;34033;48.672;9.376;2022-12-07T16:43:35;4.37;;;2.97;;
13311;SDS011;34033;48.672;9.376;2022-12-07T16:46:01;3.27;;;2.80;;
13311;SDS011;34033;48.672;9.376;2022-12-07T16:48:26;4.37;;;3.00;;
13311;SDS011;34033;48.672;9.376;2022-12-07T16:50:52;3.10;;;2.80;;
13311;SDS011;34033;48.672;9.376;2022-12-07T16:53:21;2.73;;;2.43;;
13311;SDS011;34033;48.672;9.376;2022-12-07T16:55:48;2.93;;;2.50;;
13311;SDS011;34033;48.672;9.376;2022-12-07T16:58:14;2.73;;;2.30;;
13311;SDS011;34033;48.672;9.376;2022-12-07T17:00:41;5.40;;;2.40;;
13311;SDS011;34033;48.672;9.376;2022-12-07T17:03:08;2.93;;;2.37;;
13311;SDS011;34033;48.672;9.376;2022-12-07T17:05:36;3.00;;;2.63;;
13311;SDS011;34033;48.672;9.376;2022-12-07T17:08:03;4.23;;;2.77;;
13311;SDS011;34033;48.672;9.376;2022-12-07T17:10:29;6.27;;;2.90;;
13311;SDS011;34033;48.672;9.376;2022-12-07T17:12:54;3.17;;;2.80;;
13311;SDS011;34033;48.672;9.376;2022-12-07T17:15:19;2.93;;;2.63;;
13311;SDS011;34033;48.672;9.376;2022-12-07T17:20:19;3.20;;;2.60;;
13311;SDS011;34033;48.672;9.376;2022-12-07T17:22:45;2.63;;;2.30;;
13311;SDS011;34033;48.672;9.376;2022-12-07T17:25:11;2.50;;;2.23;;